Terminal Aerodrome Forecast
Issued by NWS

Home | Current Version | Previous Version | Text Only | Print | Product List | Glossary On
Versions: 1 2 3 4 5 6 7 8 9 10 11 12 13 14 15 16 17 18 19 20 21 22 23 24 25 26 27 28 29 30 31 32 33 34 35 36 37 38 39
000
FTUS43 KPAH 150437 AAA
TAFOWB
TAF AMD
KOWB 150437Z 1505/1524 15006KT P6SM OVC050
      TEMPO 1505/1507 -SN
     FM151200 18008KT P6SM OVC050
      TEMPO 1512/1515 -SN
     FM151500 21012KT 2SM -SN BR OVC020
     FM151900 24012KT 6SM BR OVC020
     FM152200 29010KT P6SM OVC060=

USA.gov is the U.S. government's official web portal to all federal, state and local government web resources and services.